Terminal Aerodrome Forecast
Issued by NWS

Home | Current Version | Previous Version | Text Only | Print | Product List | Glossary On
Versions: 1 2 3 4 5 6 7 8 9 10 11 12 13 14 15
784
FTAK31 PAJN 231720
TAFAKT
TAF
PAKT 231720Z 2318/2418 14015G25KT P6SM -RA SCT015 OVC025
      WS020/16060KT
      TEMPO 2318/2321 14015KT 3SM RA BR BKN015 OVC020
     FM232100 14020G30KT 5SM RA BR OVC022 WS020/16045KT
     FM240300 14014G22KT 4SM RA BR OVC015
     FM240900 14014G22KT P6SM -SHRA OVC015
      AMD LTD TO CLD VIS AND WIND 2406/2415=

USA.gov is the U.S. government's official web portal to all federal, state and local government web resources and services.